Time;durP1;ratioP1;P1;durP2;ratioP2;P2;SDS_P1;SDS_P2;PMS_P1;PMS_P2;Temp;Humidity;BMP_temperature;BMP_pressure;BME280_temperature;BME280_humidity;BME280_pressure;Samples;Min_cycle;Max_cycle;Signal;HPM_P1;HPM_P2
2022/11/09 00:01:15;;;;;;;;;;;12.00;99.90;;;;;;5011430;28;19956;-66
2022/11/09 00:03:40;;;;;;;;;;;12.10;99.90;;;;;;4993770;28;20344;-67
2022/11/09 00:06:06;;;;;;;;;;;12.10;99.90;;;;;;4995199;28;19928;-67
2022/11/09 00:08:32;;;;;;;;;;;12.10;99.90;;;;;;4991205;28;20422;-67
2022/11/09 00:11:04;;;;;;;;;;;12.20;99.90;;;;;;4996843;28;20454;-67
2022/11/09 00:13:30;;;;;;;;;;;12.20;99.90;;;;;;4970469;28;20405;-66
2022/11/09 00:15:59;;;;;;;;;;;12.20;99.90;;;;;;4991861;28;19926;-67
2022/11/09 00:18:24;;;;;;;;;;;12.10;99.90;;;;;;4990852;28;19925;-67
2022/11/09 00:20:49;;;;;;;;;;;12.10;99.90;;;;;;4992298;28;20273;-67
2022/11/09 00:23:15;;;;;;;;;;;12.10;99.90;;;;;;4990973;28;19928;-66
2022/11/09 00:25:41;;;;;;;;;;;12.10;99.90;;;;;;4989822;28;19968;-67
2022/11/09 00:28:06;;;;;;;;;;;12.10;99.90;;;;;;4989219;28;19933;-67
2022/11/09 00:30:32;;;;;;;;;;;12.10;99.90;;;;;;4991598;28;19976;-67
2022/11/09 00:32:57;;;;;;;;;;;12.10;99.90;;;;;;4991240;28;20415;-67
2022/11/09 00:35:23;;;;;;;;;;;12.10;99.90;;;;;;4990310;28;19976;-67
2022/11/09 00:37:48;;;;;;;;;;;12.00;99.90;;;;;;4989919;28;19961;-67
2022/11/09 00:40:14;;;;;;;;;;;11.90;99.90;;;;;;4989415;28;19921;-67
2022/11/09 00:42:39;;;;;;;;;;;11.80;99.90;;;;;;4990825;28;19922;-67
2022/11/09 00:45:05;;;;;;;;;;;11.70;99.90;;;;;;4987681;28;20295;-67
2022/11/09 00:47:31;;;;;;;;;;;11.70;99.90;;;;;;4991054;28;19980;-67
2022/11/09 00:49:56;;;;;;;;;;;11.70;99.90;;;;;;4989888;28;19926;-67
2022/11/09 00:52:22;;;;;;;;;;;11.60;99.90;;;;;;4991120;28;19925;-67
2022/11/09 00:54:47;;;;;;;;;;;11.60;99.90;;;;;;4986439;28;20001;-67
2022/11/09 00:57:13;;;;;;;;;;;11.50;99.90;;;;;;4987972;28;20004;-67
2022/11/09 00:59:38;;;;;;;;;;;11.50;99.90;;;;;;4992097;28;20384;-67
2022/11/09 01:02:03;;;;;;;;;;;11.40;99.90;;;;;;4989822;28;20353;-67
2022/11/09 01:04:29;;;;;;;;;;;11.40;99.90;;;;;;4991108;28;19922;-67
2022/11/09 01:06:54;;;;;;;;;;;11.40;99.90;;;;;;4992130;28;19928;-66
2022/11/09 01:09:20;;;;;;;;;;;11.30;99.90;;;;;;5000583;28;19926;-67
2022/11/09 01:11:45;;;;;;;;;;;11.30;99.90;;;;;;5011415;28;19975;-67
2022/11/09 01:14:11;;;;;;;;;;;11.20;99.90;;;;;;4994591;28;19933;-67
2022/11/09 01:16:37;;;;;;;;;;;11.30;99.90;;;;;;5011745;28;20004;-67
2022/11/09 01:19:03;;;;;;;;;;;11.30;99.90;;;;;;4993897;28;20343;-67
2022/11/09 01:21:28;;;;;;;;;;;11.30;99.90;;;;;;4994372;28;20047;-67
2022/11/09 01:23:55;;;;;;;;;;;11.30;99.90;;;;;;4994227;28;20670;-67
2022/11/09 01:26:20;;;;;;;;;;;11.30;99.90;;;;;;4994463;28;19984;-67
2022/11/09 01:28:46;;;;;;;;;;;11.30;99.90;;;;;;5012267;28;19921;-66
2022/11/09 01:31:16;;;;;;;;;;;11.30;99.90;;;;;;5015361;28;19925;-66
2022/11/09 01:33:42;;;;;;;;;;;11.30;99.90;;;;;;5000056;28;19925;-66
2022/11/09 01:36:09;;;;;;;;;;;11.30;99.90;;;;;;5015244;28;19928;-67
2022/11/09 01:38:36;;;;;;;;;;;11.30;99.90;;;;;;4987926;28;19922;-66
2022/11/09 01:41:01;;;;;;;;;;;11.30;99.90;;;;;;5014827;28;19922;-67
2022/11/09 01:43:27;;;;;;;;;;;11.20;99.90;;;;;;5012388;28;20367;-67
2022/11/09 01:45:55;;;;;;;;;;;11.20;99.90;;;;;;5012483;28;20371;-66
2022/11/09 01:48:29;;;;;;;;;;;11.20;99.90;;;;;;5013457;28;19968;-67
2022/11/09 01:51:01;;;;;;;;;;;11.20;99.90;;;;;;5015255;28;19926;-67
2022/11/09 01:53:31;;;;;;;;;;;11.30;99.90;;;;;;4996657;28;19925;-67
2022/11/09 01:56:00;;;;;;;;;;;11.30;99.90;;;;;;4994372;28;19922;-67
2022/11/09 01:58:29;;;;;;;;;;;11.40;99.90;;;;;;5014799;28;19921;-67
2022/11/09 02:00:55;;;;;;;;;;;11.40;99.90;;;;;;4994256;28;19926;-67
2022/11/09 02:03:25;;;;;;;;;;;11.40;99.90;;;;;;4994460;28;19928;-66
2022/11/09 02:05:51;;;;;;;;;;;11.40;99.90;;;;;;5014144;28;19928;-66
2022/11/09 02:08:18;;;;;;;;;;;11.40;99.90;;;;;;5014235;28;20368;-66
2022/11/09 02:10:56;;;;;;;;;;;11.40;99.90;;;;;;5014428;28;19921;-66
2022/11/09 02:13:23;;;;;;;;;;;11.30;99.90;;;;;;4994139;28;19926;-67
2022/11/09 02:15:49;;;;;;;;;;;11.30;99.90;;;;;;4996689;28;19979;-66
2022/11/09 02:18:15;;;;;;;;;;;11.20;99.90;;;;;;4994836;28;20342;-66
2022/11/09 02:20:45;;;;;;;;;;;11.20;99.90;;;;;;4996800;28;19921;-67
2022/11/09 02:23:11;;;;;;;;;;;11.10;99.90;;;;;;4997018;28;20630;-66
2022/11/09 02:25:36;;;;;;;;;;;11.10;99.90;;;;;;5014289;28;19969;-67
2022/11/09 02:28:02;;;;;;;;;;;11.00;99.90;;;;;;5013607;28;20283;-66
2022/11/09 02:30:28;;;;;;;;;;;11.00;99.90;;;;;;4995832;28;19928;-66
2022/11/09 02:32:53;;;;;;;;;;;10.90;99.90;;;;;;4988431;28;20470;-66
2022/11/09 02:35:19;;;;;;;;;;;10.90;99.90;;;;;;4991013;28;19965;-66
2022/11/09 02:37:48;;;;;;;;;;;10.80;99.90;;;;;;4997005;28;19921;-66
2022/11/09 02:40:19;;;;;;;;;;;10.90;99.90;;;;;;4995968;28;20351;-66
2022/11/09 02:42:45;;;;;;;;;;;10.90;99.90;;;;;;5014303;28;19975;-66
2022/11/09 02:45:11;;;;;;;;;;;10.90;99.90;;;;;;4996377;28;19961;-66
2022/11/09 02:47:36;;;;;;;;;;;10.80;99.90;;;;;;4989277;28;20439;-66
2022/11/09 02:50:02;;;;;;;;;;;10.90;99.90;;;;;;5009140;28;19922;-66
2022/11/09 02:52:27;;;;;;;;;;;10.90;99.90;;;;;;5006564;28;19921;-67
2022/11/09 02:54:53;;;;;;;;;;;11.00;99.90;;;;;;4975497;28;19929;-66
2022/11/09 02:57:18;;;;;;;;;;;10.90;99.90;;;;;;4969704;28;19978;-66
2022/11/09 02:59:44;;;;;;;;;;;11.00;99.90;;;;;;5013758;28;20099;-66
2022/11/09 03:02:09;;;;;;;;;;;11.00;99.90;;;;;;5013652;28;19932;-66
2022/11/09 03:04:35;;;;;;;;;;;11.00;99.90;;;;;;5012211;28;19921;-66
2022/11/09 03:07:00;;;;;;;;;;;11.00;99.90;;;;;;5012854;28;20381;-67
2022/11/09 03:09:26;;;;;;;;;;;11.00;99.90;;;;;;4995690;28;19925;-67
2022/11/09 03:11:51;;;;;;;;;;;11.00;99.90;;;;;;5013488;28;19925;-66
2022/11/09 03:14:17;;;;;;;;;;;11.00;99.90;;;;;;4982390;28;19925;-66
2022/11/09 03:16:42;;;;;;;;;;;11.00;99.90;;;;;;5012667;28;19925;-66
2022/11/09 03:19:08;;;;;;;;;;;11.00;99.90;;;;;;4995123;28;19930;-66
2022/11/09 03:21:34;;;;;;;;;;;11.00;99.90;;;;;;4995858;28;20437;-66
2022/11/09 03:23:59;;;;;;;;;;;11.00;99.90;;;;;;4993606;28;20363;-66
2022/11/09 03:26:25;;;;;;;;;;;11.00;99.90;;;;;;4988102;28;19928;-66
2022/11/09 03:28:50;;;;;;;;;;;11.10;99.90;;;;;;4988627;28;19925;-66
2022/11/09 03:31:15;;;;;;;;;;;11.20;99.90;;;;;;4991759;28;20071;-66
2022/11/09 03:33:41;;;;;;;;;;;11.20;99.90;;;;;;5022573;28;19932;-66
2022/11/09 03:36:07;;;;;;;;;;;11.20;99.90;;;;;;5011111;28;19925;-66
2022/11/09 03:38:33;;;;;;;;;;;11.10;99.90;;;;;;4993321;28;19949;-66
2022/11/09 03:40:59;;;;;;;;;;;11.10;99.90;;;;;;5012176;28;19976;-66
2022/11/09 03:43:24;;;;;;;;;;;11.00;99.90;;;;;;4978070;28;19921;-66
2022/11/09 03:45:50;;;;;;;;;;;11.00;99.90;;;;;;5011589;28;19925;-66
2022/11/09 03:48:15;;;;;;;;;;;11.00;99.90;;;;;;4994665;28;20367;-66
2022/11/09 03:50:41;;;;;;;;;;;11.00;99.90;;;;;;5012305;28;19975;-67
2022/11/09 03:53:08;;;;;;;;;;;11.00;99.90;;;;;;5010254;28;20411;-66
2022/11/09 03:55:34;;;;;;;;;;;10.90;99.90;;;;;;5007649;28;19926;-66
2022/11/09 03:57:59;;;;;;;;;;;10.90;99.90;;;;;;4990174;28;19926;-66
2022/11/09 04:00:25;;;;;;;;;;;10.90;99.90;;;;;;4993899;28;19922;-66
2022/11/09 04:02:50;;;;;;;;;;;10.90;99.90;;;;;;4994518;28;19928;-66
2022/11/09 04:05:16;;;;;;;;;;;10.80;99.90;;;;;;4993632;28;20398;-66
2022/11/09 04:07:49;;;;;;;;;;;10.80;99.90;;;;;;5010338;28;19925;-66
2022/11/09 04:10:15;;;;;;;;;;;10.80;99.90;;;;;;5010800;28;20012;-66
2022/11/09 04:12:40;;;;;;;;;;;10.80;99.90;;;;;;4994289;28;19928;-66
2022/11/09 04:15:06;;;;;;;;;;;10.80;99.90;;;;;;4993767;28;20356;-66
2022/11/09 04:17:31;;;;;;;;;;;10.80;99.90;;;;;;4993773;28;20000;-66
2022/11/09 04:19:57;;;;;;;;;;;10.80;99.90;;;;;;4991820;28;19922;-66
2022/11/09 04:22:22;;;;;;;;;;;10.80;99.90;;;;;;4999841;23;19991;-67
2022/11/09 04:24:48;;;;;;;;;;;10.70;99.90;;;;;;5002973;28;20319;-68
2022/11/09 04:27:14;;;;;;;;;;;10.70;99.90;;;;;;4996702;28;19925;-68
2022/11/09 04:29:39;;;;;;;;;;;10.60;99.90;;;;;;4986442;28;19925;-67
2022/11/09 04:32:05;;;;;;;;;;;10.60;99.90;;;;;;4999330;28;20275;-68
2022/11/09 04:34:30;;;;;;;;;;;10.60;99.90;;;;;;4991828;28;19926;-67
2022/11/09 04:36:56;;;;;;;;;;;10.50;99.90;;;;;;4990612;28;19925;-67
2022/11/09 04:39:21;;;;;;;;;;;10.60;99.90;;;;;;4993166;28;19930;-67
2022/11/09 04:41:47;;;;;;;;;;;10.60;99.90;;;;;;4981045;28;20011;-67
2022/11/09 04:44:12;;;;;;;;;;;10.60;99.90;;;;;;4991520;28;20282;-67
2022/11/09 04:46:37;;;;;;;;;;;10.60;99.90;;;;;;4989061;28;19932;-68
2022/11/09 04:49:03;;;;;;;;;;;10.60;99.90;;;;;;4994002;28;19984;-68
2022/11/09 04:51:28;;;;;;;;;;;10.60;99.90;;;;;;4990864;28;20578;-68
2022/11/09 04:53:55;;;;;;;;;;;10.70;99.90;;;;;;4974911;28;19922;-67
2022/11/09 04:56:21;;;;;;;;;;;10.60;99.90;;;;;;4996412;28;19990;-68
2022/11/09 04:58:48;;;;;;;;;;;10.70;99.90;;;;;;4998809;28;19925;-68
2022/11/09 05:01:15;;;;;;;;;;;10.70;99.90;;;;;;4990864;28;19922;-67
2022/11/09 05:03:40;;;;;;;;;;;10.80;99.90;;;;;;4992784;28;19937;-67
2022/11/09 05:08:51;;;;;;;;;;;11.00;99.90;;;;;;4993125;28;19934;-68
2022/11/09 05:11:16;;;;;;;;;;;11.00;99.90;;;;;;4995299;28;19930;-67
2022/11/09 05:13:42;;;;;;;;;;;11.00;99.90;;;;;;4995013;28;19930;-68
2022/11/09 05:16:07;;;;;;;;;;;11.10;99.90;;;;;;4996324;28;20371;-68
2022/11/09 05:18:33;;;;;;;;;;;11.10;99.90;;;;;;4994622;28;19980;-67
2022/11/09 05:20:59;;;;;;;;;;;11.20;99.90;;;;;;4996557;28;19922;-68
2022/11/09 05:26:08;;;;;;;;;;;11.30;99.90;;;;;;4985227;28;19933;-68
2022/11/09 05:28:34;;;;;;;;;;;11.40;99.90;;;;;;4993334;28;19921;-68
2022/11/09 05:30:59;;;;;;;;;;;11.40;99.90;;;;;;5004624;28;19976;-67
2022/11/09 05:33:25;;;;;;;;;;;11.60;99.90;;;;;;4996939;28;19921;-68
2022/11/09 05:35:53;;;;;;;;;;;11.60;99.90;;;;;;4994780;28;20001;-68
2022/11/09 05:38:18;;;;;;;;;;;11.60;99.90;;;;;;5007966;28;20332;-68
2022/11/09 05:40:46;;;;;;;;;;;11.60;99.90;;;;;;4994311;28;20005;-68
2022/11/09 05:43:11;;;;;;;;;;;11.60;99.90;;;;;;4992603;28;20422;-68
2022/11/09 05:45:37;;;;;;;;;;;11.50;99.90;;;;;;4994447;28;19921;-68
2022/11/09 05:48:03;;;;;;;;;;;11.50;99.90;;;;;;4991294;28;20241;-68
2022/11/09 05:50:28;;;;;;;;;;;11.40;99.90;;;;;;4995480;28;19926;-68
2022/11/09 05:52:54;;;;;;;;;;;11.40;99.90;;;;;;4994728;28;19926;-68
2022/11/09 05:55:19;;;;;;;;;;;11.40;99.90;;;;;;4992699;28;19937;-68
2022/11/09 05:57:45;;;;;;;;;;;11.30;99.90;;;;;;4993037;28;19948;-68
2022/11/09 06:00:11;;;;;;;;;;;11.20;99.90;;;;;;4991731;28;19930;-68
2022/11/09 06:02:36;;;;;;;;;;;11.20;99.90;;;;;;4993931;28;19922;-68
2022/11/09 06:05:02;;;;;;;;;;;11.20;99.90;;;;;;5007520;28;20364;-68
2022/11/09 06:07:27;;;;;;;;;;;11.20;99.90;;;;;;4993758;28;19925;-68
2022/11/09 06:09:53;;;;;;;;;;;11.10;99.90;;;;;;4983338;28;19930;-68
2022/11/09 06:12:18;;;;;;;;;;;11.00;99.90;;;;;;4993694;28;19933;-68
2022/11/09 06:14:44;;;;;;;;;;;11.00;99.90;;;;;;4995383;28;20330;-68
2022/11/09 06:17:09;;;;;;;;;;;11.00;99.90;;;;;;4998826;28;20016;-68
2022/11/09 06:19:35;;;;;;;;;;;11.00;99.90;;;;;;4994376;28;20280;-68
2022/11/09 06:22:00;;;;;;;;;;;11.00;99.90;;;;;;4997004;28;19922;-68
2022/11/09 06:24:26;;;;;;;;;;;11.00;99.90;;;;;;4996026;28;19932;-68
2022/11/09 06:26:51;;;;;;;;;;;11.00;99.90;;;;;;4996505;28;19972;-68
2022/11/09 06:29:17;;;;;;;;;;;10.90;99.90;;;;;;4979523;28;20008;-68
2022/11/09 06:31:42;;;;;;;;;;;10.90;99.90;;;;;;4994951;28;19933;-68
2022/11/09 06:34:08;;;;;;;;;;;10.90;99.90;;;;;;4994379;28;19971;-68
2022/11/09 06:36:33;;;;;;;;;;;10.80;99.90;;;;;;5013098;28;20341;-68
2022/11/09 06:38:58;;;;;;;;;;;10.80;99.90;;;;;;4999923;28;20000;-68
2022/11/09 06:41:24;;;;;;;;;;;10.70;99.90;;;;;;4994981;28;19932;-68
2022/11/09 06:43:49;;;;;;;;;;;10.70;99.90;;;;;;5012830;28;19925;-68
2022/11/09 06:46:16;;;;;;;;;;;10.70;99.90;;;;;;4995095;28;19921;-68
2022/11/09 06:48:41;;;;;;;;;;;10.80;99.90;;;;;;4995121;28;19974;-68
2022/11/09 06:51:07;;;;;;;;;;;10.80;99.90;;;;;;4979884;28;19976;-68
2022/11/09 06:53:33;;;;;;;;;;;10.80;99.90;;;;;;4995980;28;19921;-68
2022/11/09 06:56:00;;;;;;;;;;;10.80;99.90;;;;;;4988225;28;19933;-68
2022/11/09 06:58:25;;;;;;;;;;;10.80;99.90;;;;;;4990165;28;20306;-68
2022/11/09 07:00:51;;;;;;;;;;;10.90;99.90;;;;;;4995064;28;19921;-68
2022/11/09 07:03:17;;;;;;;;;;;10.90;99.90;;;;;;5009188;28;19928;-68
2022/11/09 07:05:43;;;;;;;;;;;10.90;99.90;;;;;;4996049;28;19921;-68
2022/11/09 07:08:09;;;;;;;;;;;11.00;99.90;;;;;;4992275;28;19988;-68
2022/11/09 07:10:34;;;;;;;;;;;10.90;99.90;;;;;;5011827;28;19972;-68
2022/11/09 07:13:02;;;;;;;;;;;10.90;99.90;;;;;;4996009;28;19932;-68
2022/11/09 07:15:27;;;;;;;;;;;10.90;99.90;;;;;;4995571;28;20728;-68
2022/11/09 07:17:57;;;;;;;;;;;10.90;99.90;;;;;;4995447;28;19926;-68
2022/11/09 07:20:23;;;;;;;;;;;10.80;99.90;;;;;;4995460;28;20398;-68
2022/11/09 07:22:49;;;;;;;;;;;10.80;99.90;;;;;;5013261;28;19931;-68
2022/11/09 07:25:15;;;;;;;;;;;10.80;99.90;;;;;;4995248;28;19929;-68
2022/11/09 07:27:40;;;;;;;;;;;10.70;99.90;;;;;;5013361;28;19928;-68
2022/11/09 07:30:06;;;;;;;;;;;10.70;99.90;;;;;;4995788;28;19947;-68
2022/11/09 07:32:33;;;;;;;;;;;10.80;99.90;;;;;;4995844;28;20363;-68
2022/11/09 07:34:58;;;;;;;;;;;10.80;99.90;;;;;;4995257;28;19972;-68
2022/11/09 07:37:23;;;;;;;;;;;10.90;99.90;;;;;;5013286;28;19969;-68
2022/11/09 07:39:49;;;;;;;;;;;10.80;99.90;;;;;;5003725;28;20278;-68
2022/11/09 07:42:14;;;;;;;;;;;10.80;99.90;;;;;;5015741;28;19922;-68
2022/11/09 07:44:40;;;;;;;;;;;10.90;99.90;;;;;;5003177;28;20636;-68
2022/11/09 07:47:05;;;;;;;;;;;10.90;99.90;;;;;;5016767;28;19980;-68
2022/11/09 07:49:31;;;;;;;;;;;11.00;99.90;;;;;;4993323;28;19932;-68
2022/11/09 07:51:56;;;;;;;;;;;11.10;99.90;;;;;;4989901;28;19929;-68
2022/11/09 07:54:22;;;;;;;;;;;11.10;99.90;;;;;;4994478;28;20367;-68
2022/11/09 07:56:47;;;;;;;;;;;11.20;99.90;;;;;;4989035;28;19928;-68
2022/11/09 07:59:13;;;;;;;;;;;11.20;99.90;;;;;;4986144;28;20259;-68
2022/11/09 08:01:38;;;;;;;;;;;11.30;99.90;;;;;;4995068;28;19933;-68
2022/11/09 08:04:05;;;;;;;;;;;11.30;99.90;;;;;;4995427;28;20008;-68
2022/11/09 08:06:30;;;;;;;;;;;11.30;99.90;;;;;;4994790;28;19925;-68
2022/11/09 08:08:56;;;;;;;;;;;11.40;99.90;;;;;;5011758;28;19925;-68
2022/11/09 08:11:22;;;;;;;;;;;11.50;99.90;;;;;;4992912;28;19929;-68
2022/11/09 08:13:48;;;;;;;;;;;11.50;99.90;;;;;;5005525;28;19921;-68
2022/11/09 08:16:13;;;;;;;;;;;11.60;99.90;;;;;;5014550;28;19976;-68
2022/11/09 08:18:39;;;;;;;;;;;11.70;99.90;;;;;;4994888;28;19945;-68
2022/11/09 08:21:05;;;;;;;;;;;11.80;99.90;;;;;;4994634;28;19932;-68
2022/11/09 08:23:30;;;;;;;;;;;11.90;99.90;;;;;;4994133;28;20317;-68
2022/11/09 08:25:56;;;;;;;;;;;11.90;99.90;;;;;;5015802;28;20393;-68
2022/11/09 08:28:21;;;;;;;;;;;11.90;99.90;;;;;;5004263;28;20295;-68
2022/11/09 08:30:54;;;;;;;;;;;11.90;99.90;;;;;;4994687;28;19929;-68
2022/11/09 08:33:20;;;;;;;;;;;11.90;99.90;;;;;;5012312;28;20411;-68
2022/11/09 08:35:45;;;;;;;;;;;11.90;99.90;;;;;;4994193;28;19971;-68
2022/11/09 08:38:11;;;;;;;;;;;11.90;99.90;;;;;;4977935;28;19928;-68
2022/11/09 08:40:36;;;;;;;;;;;11.90;99.90;;;;;;4994023;28;19933;-68
2022/11/09 08:43:03;;;;;;;;;;;11.90;99.90;;;;;;5003739;28;19921;-68
2022/11/09 08:45:29;;;;;;;;;;;12.00;99.90;;;;;;4994004;28;19933;-68
2022/11/09 08:47:58;;;;;;;;;;;12.00;99.90;;;;;;4972330;28;19921;-68
2022/11/09 08:50:24;;;;;;;;;;;12.00;99.90;;;;;;5007457;28;19930;-69
2022/11/09 08:52:49;;;;;;;;;;;12.00;99.90;;;;;;4993561;28;19936;-69
2022/11/09 08:55:15;;;;;;;;;;;12.00;99.90;;;;;;4993510;28;19925;-69
2022/11/09 08:57:40;;;;;;;;;;;12.10;99.90;;;;;;5007283;28;20344;-69
2022/11/09 09:00:06;;;;;;;;;;;12.10;99.90;;;;;;4993153;28;19922;-68
2022/11/09 09:02:32;;;;;;;;;;;12.20;99.90;;;;;;5009607;28;19996;-68
2022/11/09 09:04:57;;;;;;;;;;;12.20;99.90;;;;;;4989046;28;20286;-69
2022/11/09 09:07:23;;;;;;;;;;;12.30;99.90;;;;;;4993331;28;19927;-68
2022/11/09 09:09:48;;;;;;;;;;;12.30;99.90;;;;;;4991837;28;19932;-68
2022/11/09 09:12:14;;;;;;;;;;;12.30;99.90;;;;;;4991486;28;19926;-68
2022/11/09 09:14:39;;;;;;;;;;;12.30;99.90;;;;;;4993673;28;20386;-68
2022/11/09 09:17:05;;;;;;;;;;;12.40;99.90;;;;;;4974213;28;19922;-68
2022/11/09 09:19:30;;;;;;;;;;;12.40;99.90;;;;;;4990722;28;19987;-68
2022/11/09 09:21:56;;;;;;;;;;;12.40;99.90;;;;;;5006209;28;19928;-68
2022/11/09 09:24:22;;;;;;;;;;;12.50;99.90;;;;;;4976612;28;19937;-68
2022/11/09 09:26:47;;;;;;;;;;;12.50;99.90;;;;;;4987820;28;20481;-68
2022/11/09 09:29:13;;;;;;;;;;;12.60;99.90;;;;;;4986317;28;19933;-68
2022/11/09 09:31:39;;;;;;;;;;;12.60;99.90;;;;;;4985873;28;20432;-68
2022/11/09 09:34:04;;;;;;;;;;;12.70;99.90;;;;;;4997459;28;20378;-68
2022/11/09 09:36:30;;;;;;;;;;;12.70;99.90;;;;;;4998686;28;19931;-68
2022/11/09 09:38:56;;;;;;;;;;;12.80;99.90;;;;;;5009147;28;19958;-68
2022/11/09 09:41:25;;;;;;;;;;;12.80;99.90;;;;;;4985527;28;19932;-68
2022/11/09 09:43:53;;;;;;;;;;;12.80;99.90;;;;;;4988924;28;19933;-69
2022/11/09 09:46:27;;;;;;;;;;;12.80;99.90;;;;;;4970859;28;19953;-68
2022/11/09 09:48:55;;;;;;;;;;;13.00;99.90;;;;;;4986893;28;20422;-69
2022/11/09 09:51:26;;;;;;;;;;;13.00;99.90;;;;;;5008626;28;19929;-68
2022/11/09 09:54:00;;;;;;;;;;;13.10;99.90;;;;;;4980832;28;19925;-68
2022/11/09 09:56:29;;;;;;;;;;;13.20;99.90;;;;;;4994280;28;19971;-69
2022/11/09 09:58:58;;;;;;;;;;;13.20;99.90;;;;;;4993946;28;20326;-68
2022/11/09 10:01:27;;;;;;;;;;;13.20;99.90;;;;;;4990384;28;20016;-68
2022/11/09 10:03:52;;;;;;;;;;;13.20;99.90;;;;;;4979379;28;19925;-68
2022/11/09 10:06:36;;;;;;;;;;;13.20;99.90;;;;;;4995217;28;20355;-68
2022/11/09 10:09:02;;;;;;;;;;;13.20;99.90;;;;;;4990107;28;19981;-68
2022/11/09 10:11:30;;;;;;;;;;;13.30;99.90;;;;;;4995239;28;19933;-69
2022/11/09 10:14:15;;;;;;;;;;;13.30;99.90;;;;;;4991520;28;19932;-68
2022/11/09 10:16:54;;;;;;;;;;;13.30;99.90;;;;;;4993637;28;19926;-68
2022/11/09 10:19:36;;;;;;;;;;;13.40;99.90;;;;;;4993990;28;19929;-68
2022/11/09 10:22:01;;;;;;;;;;;13.50;99.90;;;;;;4992175;28;19921;-68
2022/11/09 10:24:29;;;;;;;;;;;13.50;99.90;;;;;;5009891;28;20003;-68
2022/11/09 10:26:56;;;;;;;;;;;13.50;99.90;;;;;;4988833;28;19976;-68
2022/11/09 10:29:38;;;;;;;;;;;13.60;99.90;;;;;;4989564;28;19932;-68
2022/11/09 10:32:06;;;;;;;;;;;13.60;99.90;;;;;;5009643;28;19937;-68
2022/11/09 10:34:36;;;;;;;;;;;13.70;99.90;;;;;;4991264;28;20943;-68
2022/11/09 10:37:05;;;;;;;;;;;13.70;99.90;;;;;;4995191;28;19921;-68
2022/11/09 10:39:48;;;;;;;;;;;13.80;99.90;;;;;;4994324;28;20047;-68
2022/11/09 10:42:13;;;;;;;;;;;13.80;99.90;;;;;;4995346;28;19921;-68
2022/11/09 10:44:39;;;;;;;;;;;13.80;99.90;;;;;;4994941;28;20055;-69
2022/11/09 10:47:07;;;;;;;;;;;13.80;99.90;;;;;;4991860;28;19928;-69
2022/11/09 10:49:33;;;;;;;;;;;13.70;99.90;;;;;;4991592;28;20076;-69
2022/11/09 10:51:58;;;;;;;;;;;13.70;99.90;;;;;;4977011;28;20020;-68
2022/11/09 10:54:26;;;;;;;;;;;13.80;99.90;;;;;;4996115;28;20093;-68
2022/11/09 10:56:58;;;;;;;;;;;13.90;99.90;;;;;;4995569;28;19925;-69
2022/11/09 10:59:32;;;;;;;;;;;13.90;99.90;;;;;;5009473;28;19925;-69
2022/11/09 11:01:58;;;;;;;;;;;13.90;99.90;;;;;;4989497;28;19925;-69
2022/11/09 11:04:24;;;;;;;;;;;14.00;99.90;;;;;;4992821;28;19921;-68
2022/11/09 11:06:49;;;;;;;;;;;14.00;99.90;;;;;;4998479;28;19928;-68
2022/11/09 11:09:18;;;;;;;;;;;14.10;99.90;;;;;;4994777;28;19921;-68
2022/11/09 11:11:44;;;;;;;;;;;14.10;99.90;;;;;;5005103;28;19972;-68
2022/11/09 11:14:17;;;;;;;;;;;14.10;99.90;;;;;;4987987;28;19936;-68
2022/11/09 11:16:43;;;;;;;;;;;14.30;99.90;;;;;;4993290;28;19922;-69
2022/11/09 11:19:24;;;;;;;;;;;14.30;99.90;;;;;;4979101;28;19969;-68
2022/11/09 11:22:08;;;;;;;;;;;14.30;99.90;;;;;;4988487;28;19925;-68
2022/11/09 11:24:41;;;;;;;;;;;14.30;99.90;;;;;;4995738;28;20263;-68
2022/11/09 11:27:15;;;;;;;;;;;14.40;99.90;;;;;;4995812;28;20300;-69
2022/11/09 11:29:44;;;;;;;;;;;14.40;99.90;;;;;;4995338;28;19940;-68
2022/11/09 11:32:12;;;;;;;;;;;14.40;99.90;;;;;;4994296;28;19957;-68
2022/11/09 11:34:38;;;;;;;;;;;14.40;99.90;;;;;;4995597;28;19997;-68
2022/11/09 11:37:25;;;;;;;;;;;14.30;99.90;;;;;;5025636;28;19929;-68
2022/11/09 11:39:51;;;;;;;;;;;14.30;99.90;;;;;;5010177;28;19921;-68
2022/11/09 11:42:22;;;;;;;;;;;14.30;99.90;;;;;;5000014;28;20020;-68
2022/11/09 11:44:50;;;;;;;;;;;14.30;99.90;;;;;;4995448;28;19928;-69
2022/11/09 11:47:20;;;;;;;;;;;14.30;99.90;;;;;;4995105;28;19925;-68
2022/11/09 11:50:12;;;;;;;;;;;14.30;99.90;;;;;;4997035;28;20465;-68
2022/11/09 11:52:50;;;;;;;;;;;14.10;99.90;;;;;;4986944;28;20000;-68
2022/11/09 11:55:18;;;;;;;;;;;14.10;99.90;;;;;;4991086;28;20420;-68
2022/11/09 11:57:51;;;;;;;;;;;14.20;99.90;;;;;;5012652;28;19928;-68
2022/11/09 12:00:18;;;;;;;;;;;14.20;99.90;;;;;;4994324;28;19926;-68
2022/11/09 12:02:49;;;;;;;;;;;14.20;99.90;;;;;;4979987;28;19921;-68
2022/11/09 12:05:34;;;;;;;;;;;14.20;99.90;;;;;;4987482;28;19992;-68
2022/11/09 12:08:06;;;;;;;;;;;14.20;99.90;;;;;;4996617;28;19961;-68
2022/11/09 12:10:50;;;;;;;;;;;14.20;99.90;;;;;;4990413;28;19952;-68
2022/11/09 12:13:34;;;;;;;;;;;14.20;99.90;;;;;;4986430;28;19929;-68
2022/11/09 12:16:04;;;;;;;;;;;14.10;99.90;;;;;;4988596;28;19932;-68
2022/11/09 12:18:36;;;;;;;;;;;14.10;99.90;;;;;;4991631;28;19921;-68
2022/11/09 12:21:01;;;;;;;;;;;14.00;99.90;;;;;;4993023;28;20004;-68
2022/11/09 12:23:32;;;;;;;;;;;14.10;99.90;;;;;;5010242;28;20446;-68
2022/11/09 12:26:04;;;;;;;;;;;14.00;99.90;;;;;;4984038;28;19929;-68
2022/11/09 12:28:45;;;;;;;;;;;14.00;99.90;;;;;;5004270;28;19929;-69
2022/11/09 12:31:49;;;;;;;;;;;13.90;99.90;;;;;;4987372;28;19991;-69
2022/11/09 12:34:37;;;;;;;;;;;13.80;99.90;;;;;;4943329;28;19981;-68
2022/11/09 12:37:07;;;;;;;;;;;13.80;99.90;;;;;;4925039;28;19927;-69
2022/11/09 12:39:33;;;;;;;;;;;13.70;99.90;;;;;;4982425;28;19926;-69
2022/11/09 12:42:02;;;;;;;;;;;13.70;99.90;;;;;;5011371;28;19927;-69
2022/11/09 12:44:31;;;;;;;;;;;13.80;99.90;;;;;;4995439;28;19925;-68
2022/11/09 12:47:02;;;;;;;;;;;13.90;99.90;;;;;;5006030;28;19995;-68
2022/11/09 12:49:33;;;;;;;;;;;13.90;99.90;;;;;;5011346;28;19927;-68
2022/11/09 12:51:59;;;;;;;;;;;14.00;99.90;;;;;;4993563;28;19936;-68
2022/11/09 12:54:24;;;;;;;;;;;14.00;99.90;;;;;;5010640;28;19925;-68
2022/11/09 12:56:55;;;;;;;;;;;13.90;99.90;;;;;;5007155;28;19925;-68
2022/11/09 12:59:32;;;;;;;;;;;13.80;99.90;;;;;;5010833;28;19929;-68
2022/11/09 13:01:58;;;;;;;;;;;13.80;99.90;;;;;;4990382;28;19921;-68
2022/11/09 13:04:24;;;;;;;;;;;13.70;99.90;;;;;;4984466;28;19925;-68
2022/11/09 13:07:07;;;;;;;;;;;13.70;99.90;;;;;;5008404;28;19947;-68
2022/11/09 13:09:33;;;;;;;;;;;13.70;99.90;;;;;;4990138;28;19933;-69
2022/11/09 13:12:14;;;;;;;;;;;13.60;99.90;;;;;;4991659;28;19921;-68
2022/11/09 13:14:40;;;;;;;;;;;13.60;99.90;;;;;;4991018;28;19936;-68
2022/11/09 13:17:23;;;;;;;;;;;13.50;99.90;;;;;;4992356;28;19925;-68
2022/11/09 13:19:51;;;;;;;;;;;13.50;99.90;;;;;;4994082;28;19936;-68
2022/11/09 13:22:18;;;;;;;;;;;13.40;99.90;;;;;;5003327;28;19926;-68
2022/11/09 13:24:49;;;;;;;;;;;13.40;99.90;;;;;;4986077;28;19991;-68
2022/11/09 13:27:33;;;;;;;;;;;13.40;99.90;;;;;;5008925;28;19929;-68
2022/11/09 13:29:59;;;;;;;;;;;13.40;99.90;;;;;;5010352;28;19933;-68
2022/11/09 13:32:26;;;;;;;;;;;13.50;99.90;;;;;;4992432;28;19964;-68
2022/11/09 13:34:55;;;;;;;;;;;13.50;99.90;;;;;;4989542;28;21770;-68
2022/11/09 13:37:35;;;;;;;;;;;13.50;99.90;;;;;;4989497;28;20011;-68
2022/11/09 13:40:19;;;;;;;;;;;13.60;99.90;;;;;;5008062;28;19932;-68
2022/11/09 13:42:54;;;;;;;;;;;13.70;99.90;;;;;;5002261;28;19929;-68
2022/11/09 13:45:23;;;;;;;;;;;13.80;99.90;;;;;;5015623;28;19975;-68
2022/11/09 13:47:49;;;;;;;;;;;14.00;99.90;;;;;;4999022;28;19975;-67
2022/11/09 13:50:17;;;;;;;;;;;14.10;99.90;;;;;;4996590;28;19941;-68
2022/11/09 13:52:42;;;;;;;;;;;14.10;99.90;;;;;;4997657;28;20267;-68
2022/11/09 13:55:21;;;;;;;;;;;14.10;99.90;;;;;;4994267;28;19932;-68
2022/11/09 13:57:47;;;;;;;;;;;14.10;99.90;;;;;;4994451;28;19932;-68
2022/11/09 14:00:22;;;;;;;;;;;14.10;99.90;;;;;;4994146;28;19922;-67
2022/11/09 14:02:54;;;;;;;;;;;14.00;99.90;;;;;;4997607;28;20003;-67
2022/11/09 14:05:24;;;;;;;;;;;14.00;99.90;;;;;;4996683;28;19925;-67
2022/11/09 14:07:51;;;;;;;;;;;14.00;99.90;;;;;;4999047;28;19922;-67
2022/11/09 14:10:23;;;;;;;;;;;13.90;99.90;;;;;;4996831;28;20391;-67
2022/11/09 14:12:58;;;;;;;;;;;14.00;99.90;;;;;;4989141;28;19921;-67
2022/11/09 14:15:23;;;;;;;;;;;13.90;99.90;;;;;;4999379;28;19921;-67
2022/11/09 14:17:55;;;;;;;;;;;13.90;99.90;;;;;;5012784;28;20318;-68
2022/11/09 14:20:37;;;;;;;;;;;13.90;99.90;;;;;;4996335;28;19983;-67
2022/11/09 14:23:13;;;;;;;;;;;13.70;99.90;;;;;;5013732;28;19928;-68
2022/11/09 14:25:38;;;;;;;;;;;13.70;99.90;;;;;;4983688;28;19930;-67